sensor_id;sensor_type;location;lat;lon;timestamp;temperature;humidity
17992;DHT22;9121;50.926;5.340;2023-02-03T00:00:38;10.00;99.90
17992;DHT22;9121;50.926;5.340;2023-02-03T00:03:05;10.00;99.90
17992;DHT22;9121;50.926;5.340;2023-02-03T00:05:34;9.90;99.90
17992;DHT22;9121;50.926;5.340;2023-02-03T00:08:03;9.90;99.90
17992;DHT22;9121;50.926;5.340;2023-02-03T00:10:30;9.90;99.90
17992;DHT22;9121;50.926;5.340;2023-02-03T00:12:57;9.90;99.90
17992;DHT22;9121;50.926;5.340;2023-02-03T00:15:24;9.90;99.90
17992;DHT22;9121;50.926;5.340;2023-02-03T00:17:51;9.90;99.90
17992;DHT22;9121;50.926;5.340;2023-02-03T00:20:18;9.90;99.90
17992;DHT22;9121;50.926;5.340;2023-02-03T00:22:46;9.80;99.90
17992;DHT22;9121;50.926;5.340;2023-02-03T00:25:13;9.90;99.90
17992;DHT22;9121;50.926;5.340;2023-02-03T00:27:40;9.90;99.90
17992;DHT22;9121;50.926;5.340;2023-02-03T00:30:09;9.80;99.90
17992;DHT22;9121;50.926;5.340;2023-02-03T00:32:36;9.90;99.90
17992;DHT22;9121;50.926;5.340;2023-02-03T00:35:03;9.90;99.90
17992;DHT22;9121;50.926;5.340;2023-02-03T00:37:30;9.90;99.90
17992;DHT22;9121;50.926;5.340;2023-02-03T00:39:58;9.90;99.90
17992;DHT22;9121;50.926;5.340;2023-02-03T00:42:25;9.90;99.90
17992;DHT22;9121;50.926;5.340;2023-02-03T00:44:52;9.90;99.90
17992;DHT22;9121;50.926;5.340;2023-02-03T00:47:19;9.90;99.90
17992;DHT22;9121;50.926;5.340;2023-02-03T00:49:46;9.90;99.90
17992;DHT22;9121;50.926;5.340;2023-02-03T00:52:15;9.90;99.90
17992;DHT22;9121;50.926;5.340;2023-02-03T00:54:41;9.90;99.90
17992;DHT22;9121;50.926;5.340;2023-02-03T00:57:13;9.90;99.90
17992;DHT22;9121;50.926;5.340;2023-02-03T00:59:39;9.90;99.90
17992;DHT22;9121;50.926;5.340;2023-02-03T01:02:06;9.90;99.90
17992;DHT22;9121;50.926;5.340;2023-02-03T01:04:33;9.90;99.90
17992;DHT22;9121;50.926;5.340;2023-02-03T01:07:00;9.80;99.90
17992;DHT22;9121;50.926;5.340;2023-02-03T01:09:27;9.90;99.90
17992;DHT22;9121;50.926;5.340;2023-02-03T01:11:54;9.80;99.90
17992;DHT22;9121;50.926;5.340;2023-02-03T01:14:22;9.90;99.90
17992;DHT22;9121;50.926;5.340;2023-02-03T01:16:49;9.80;99.90
17992;DHT22;9121;50.926;5.340;2023-02-03T01:19:16;9.90;99.90
17992;DHT22;9121;50.926;5.340;2023-02-03T01:21:43;9.80;99.90
17992;DHT22;9121;50.926;5.340;2023-02-03T01:24:10;9.80;99.90
17992;DHT22;9121;50.926;5.340;2023-02-03T01:26:40;9.80;99.90
17992;DHT22;9121;50.926;5.340;2023-02-03T01:29:07;9.80;99.90
17992;DHT22;9121;50.926;5.340;2023-02-03T01:31:37;9.80;99.90
17992;DHT22;9121;50.926;5.340;2023-02-03T01:34:06;9.80;99.90
17992;DHT22;9121;50.926;5.340;2023-02-03T01:36:34;9.80;99.90
17992;DHT22;9121;50.926;5.340;2023-02-03T01:39:01;9.80;99.90
17992;DHT22;9121;50.926;5.340;2023-02-03T01:41:31;9.80;99.90
17992;DHT22;9121;50.926;5.340;2023-02-03T01:44:00;9.80;99.90
17992;DHT22;9121;50.926;5.340;2023-02-03T01:46:30;9.80;99.90
17992;DHT22;9121;50.926;5.340;2023-02-03T01:49:05;9.80;99.90
17992;DHT22;9121;50.926;5.340;2023-02-03T01:51:34;9.80;99.90
17992;DHT22;9121;50.926;5.340;2023-02-03T01:54:04;9.90;99.90
17992;DHT22;9121;50.926;5.340;2023-02-03T01:56:35;9.90;99.90
17992;DHT22;9121;50.926;5.340;2023-02-03T01:59:04;9.90;99.90
17992;DHT22;9121;50.926;5.340;2023-02-03T02:01:32;9.90;99.90
17992;DHT22;9121;50.926;5.340;2023-02-03T02:04:03;9.90;99.90
17992;DHT22;9121;50.926;5.340;2023-02-03T02:06:30;9.90;99.90
17992;DHT22;9121;50.926;5.340;2023-02-03T02:08:57;10.00;99.90
17992;DHT22;9121;50.926;5.340;2023-02-03T02:11:26;10.00;99.90
17992;DHT22;9121;50.926;5.340;2023-02-03T02:13:55;10.00;99.90
17992;DHT22;9121;50.926;5.340;2023-02-03T02:16:30;10.00;99.90
17992;DHT22;9121;50.926;5.340;2023-02-03T02:19:23;10.00;99.90
17992;DHT22;9121;50.926;5.340;2023-02-03T02:22:04;9.90;99.90
17992;DHT22;9121;50.926;5.340;2023-02-03T02:25:17;9.90;99.90
17992;DHT22;9121;50.926;5.340;2023-02-03T02:28:20;9.90;99.90
17992;DHT22;9121;50.926;5.340;2023-02-03T02:31:03;10.00;99.90
17992;DHT22;9121;50.926;5.340;2023-02-03T02:33:40;10.00;99.90
17992;DHT22;9121;50.926;5.340;2023-02-03T02:36:17;10.00;99.90
17992;DHT22;9121;50.926;5.340;2023-02-03T02:38:52;10.00;99.90
17992;DHT22;9121;50.926;5.340;2023-02-03T02:41:27;10.00;99.90
17992;DHT22;9121;50.926;5.340;2023-02-03T02:44:00;10.00;99.90
17992;DHT22;9121;50.926;5.340;2023-02-03T02:46:32;10.00;99.90
17992;DHT22;9121;50.926;5.340;2023-02-03T02:49:07;10.00;99.90
17992;DHT22;9121;50.926;5.340;2023-02-03T02:51:36;10.00;99.90
17992;DHT22;9121;50.926;5.340;2023-02-03T02:54:06;10.00;99.90
17992;DHT22;9121;50.926;5.340;2023-02-03T02:56:36;10.00;99.90
17992;DHT22;9121;50.926;5.340;2023-02-03T02:59:05;10.10;99.90
17992;DHT22;9121;50.926;5.340;2023-02-03T03:01:33;10.00;99.90
17992;DHT22;9121;50.926;5.340;2023-02-03T03:04:04;10.00;99.90
17992;DHT22;9121;50.926;5.340;2023-02-03T03:06:34;10.00;99.90
17992;DHT22;9121;50.926;5.340;2023-02-03T03:09:05;10.00;99.90
17992;DHT22;9121;50.926;5.340;2023-02-03T03:11:35;10.00;99.90
17992;DHT22;9121;50.926;5.340;2023-02-03T03:14:04;10.00;99.90
17992;DHT22;9121;50.926;5.340;2023-02-03T03:16:33;10.00;99.90
17992;DHT22;9121;50.926;5.340;2023-02-03T03:19:07;10.00;99.90
17992;DHT22;9121;50.926;5.340;2023-02-03T03:21:41;10.00;99.90
17992;DHT22;9121;50.926;5.340;2023-02-03T03:24:11;10.00;99.90
17992;DHT22;9121;50.926;5.340;2023-02-03T03:26:44;10.00;99.90
17992;DHT22;9121;50.926;5.340;2023-02-03T03:29:16;10.00;99.90
17992;DHT22;9121;50.926;5.340;2023-02-03T03:31:45;10.00;99.90
17992;DHT22;9121;50.926;5.340;2023-02-03T03:34:14;10.00;99.80
17992;DHT22;9121;50.926;5.340;2023-02-03T03:36:44;10.00;99.60
17992;DHT22;9121;50.926;5.340;2023-02-03T03:39:16;10.10;99.60
17992;DHT22;9121;50.926;5.340;2023-02-03T03:41:53;10.00;99.00
17992;DHT22;9121;50.926;5.340;2023-02-03T03:44:26;10.10;98.90
17992;DHT22;9121;50.926;5.340;2023-02-03T03:47:11;10.10;98.20
17992;DHT22;9121;50.926;5.340;2023-02-03T03:49:41;10.10;98.20
17992;DHT22;9121;50.926;5.340;2023-02-03T03:52:10;10.10;97.80
17992;DHT22;9121;50.926;5.340;2023-02-03T03:54:41;10.10;98.10
17992;DHT22;9121;50.926;5.340;2023-02-03T03:57:12;10.10;97.50
17992;DHT22;9121;50.926;5.340;2023-02-03T03:59:42;10.10;97.30
17992;DHT22;9121;50.926;5.340;2023-02-03T04:02:12;10.10;97.50
17992;DHT22;9121;50.926;5.340;2023-02-03T04:04:42;10.10;97.90
17992;DHT22;9121;50.926;5.340;2023-02-03T04:07:11;10.10;96.90
17992;DHT22;9121;50.926;5.340;2023-02-03T04:09:38;10.00;98.50
17992;DHT22;9121;50.926;5.340;2023-02-03T04:12:14;10.00;98.20
17992;DHT22;9121;50.926;5.340;2023-02-03T04:14:42;10.00;97.40
17992;DHT22;9121;50.926;5.340;2023-02-03T04:17:09;10.10;96.90
17992;DHT22;9121;50.926;5.340;2023-02-03T04:19:36;10.00;97.30
17992;DHT22;9121;50.926;5.340;2023-02-03T04:22:04;10.00;98.50
17992;DHT22;9121;50.926;5.340;2023-02-03T04:24:31;10.00;97.70
17992;DHT22;9121;50.926;5.340;2023-02-03T04:26:58;10.00;98.50
17992;DHT22;9121;50.926;5.340;2023-02-03T04:29:25;10.00;97.70
17992;DHT22;9121;50.926;5.340;2023-02-03T04:31:52;10.00;98.00
17992;DHT22;9121;50.926;5.340;2023-02-03T04:34:20;10.00;97.30
17992;DHT22;9121;50.926;5.340;2023-02-03T04:36:47;9.90;97.60
17992;DHT22;9121;50.926;5.340;2023-02-03T04:39:15;9.90;97.70
17992;DHT22;9121;50.926;5.340;2023-02-03T04:41:42;9.90;97.40
17992;DHT22;9121;50.926;5.340;2023-02-03T04:44:09;10.00;97.60
17992;DHT22;9121;50.926;5.340;2023-02-03T04:46:36;10.00;96.70
17992;DHT22;9121;50.926;5.340;2023-02-03T04:49:03;10.00;96.50
17992;DHT22;9121;50.926;5.340;2023-02-03T04:51:30;10.00;95.90
17992;DHT22;9121;50.926;5.340;2023-02-03T04:53:57;10.00;96.10
17992;DHT22;9121;50.926;5.340;2023-02-03T04:56:25;10.00;96.10
17992;DHT22;9121;50.926;5.340;2023-02-03T04:58:52;10.00;96.40
17992;DHT22;9121;50.926;5.340;2023-02-03T05:01:19;10.00;95.30
17992;DHT22;9121;50.926;5.340;2023-02-03T05:03:46;10.00;95.90
17992;DHT22;9121;50.926;5.340;2023-02-03T05:06:13;10.00;96.50
17992;DHT22;9121;50.926;5.340;2023-02-03T05:08:40;10.00;95.70
17992;DHT22;9121;50.926;5.340;2023-02-03T05:11:07;10.00;96.00
17992;DHT22;9121;50.926;5.340;2023-02-03T05:13:35;10.00;95.10
17992;DHT22;9121;50.926;5.340;2023-02-03T05:16:02;9.90;95.50
17992;DHT22;9121;50.926;5.340;2023-02-03T05:18:29;10.00;95.30
17992;DHT22;9121;50.926;5.340;2023-02-03T05:20:56;10.00;95.90
17992;DHT22;9121;50.926;5.340;2023-02-03T05:23:23;10.00;94.60
17992;DHT22;9121;50.926;5.340;2023-02-03T05:25:50;10.00;95.00
17992;DHT22;9121;50.926;5.340;2023-02-03T05:28:17;9.90;95.40
17992;DHT22;9121;50.926;5.340;2023-02-03T05:30:45;9.90;95.70
17992;DHT22;9121;50.926;5.340;2023-02-03T05:33:12;10.00;95.40
17992;DHT22;9121;50.926;5.340;2023-02-03T05:35:39;10.00;95.70
17992;DHT22;9121;50.926;5.340;2023-02-03T05:38:06;9.90;95.10
17992;DHT22;9121;50.926;5.340;2023-02-03T05:40:33;9.90;96.20
17992;DHT22;9121;50.926;5.340;2023-02-03T05:43:23;9.90;95.90
17992;DHT22;9121;50.926;5.340;2023-02-03T05:45:51;9.90;95.90
17992;DHT22;9121;50.926;5.340;2023-02-03T05:48:18;9.90;95.50
17992;DHT22;9121;50.926;5.340;2023-02-03T05:50:45;9.90;95.00
17992;DHT22;9121;50.926;5.340;2023-02-03T05:53:12;10.00;94.30
17992;DHT22;9121;50.926;5.340;2023-02-03T05:55:39;10.00;94.40
17992;DHT22;9121;50.926;5.340;2023-02-03T05:58:06;9.90;94.70
17992;DHT22;9121;50.926;5.340;2023-02-03T06:00:33;10.00;94.30
17992;DHT22;9121;50.926;5.340;2023-02-03T06:03:02;9.90;94.20
17992;DHT22;9121;50.926;5.340;2023-02-03T06:05:31;9.90;93.90
17992;DHT22;9121;50.926;5.340;2023-02-03T06:07:58;9.90;93.40
17992;DHT22;9121;50.926;5.340;2023-02-03T06:10:25;9.90;93.30
17992;DHT22;9121;50.926;5.340;2023-02-03T06:12:53;9.90;93.00
17992;DHT22;9121;50.926;5.340;2023-02-03T06:15:20;10.00;92.80
17992;DHT22;9121;50.926;5.340;2023-02-03T06:17:48;10.00;91.90
17992;DHT22;9121;50.926;5.340;2023-02-03T06:20:18;10.00;91.60
17992;DHT22;9121;50.926;5.340;2023-02-03T06:22:45;9.90;91.30
17992;DHT22;9121;50.926;5.340;2023-02-03T06:25:12;9.90;91.00
17992;DHT22;9121;50.926;5.340;2023-02-03T06:27:39;9.90;91.40
17992;DHT22;9121;50.926;5.340;2023-02-03T06:30:07;10.00;91.30
17992;DHT22;9121;50.926;5.340;2023-02-03T06:32:35;10.00;90.60
17992;DHT22;9121;50.926;5.340;2023-02-03T06:35:03;9.90;90.30
17992;DHT22;9121;50.926;5.340;2023-02-03T06:37:31;10.00;90.60
17992;DHT22;9121;50.926;5.340;2023-02-03T06:39:58;10.00;90.40
17992;DHT22;9121;50.926;5.340;2023-02-03T06:42:25;10.00;89.20
17992;DHT22;9121;50.926;5.340;2023-02-03T06:44:52;10.00;88.70
17992;DHT22;9121;50.926;5.340;2023-02-03T06:47:19;10.00;89.20
17992;DHT22;9121;50.926;5.340;2023-02-03T06:49:46;10.00;88.80
17992;DHT22;9121;50.926;5.340;2023-02-03T06:52:13;10.00;88.60
17992;DHT22;9121;50.926;5.340;2023-02-03T06:54:42;10.00;88.60
17992;DHT22;9121;50.926;5.340;2023-02-03T06:57:09;9.90;88.10
17992;DHT22;9121;50.926;5.340;2023-02-03T06:59:36;10.00;90.10
17992;DHT22;9121;50.926;5.340;2023-02-03T07:02:03;10.00;89.70
17992;DHT22;9121;50.926;5.340;2023-02-03T07:04:30;10.00;88.40
17992;DHT22;9121;50.926;5.340;2023-02-03T07:06:57;10.00;88.20
17992;DHT22;9121;50.926;5.340;2023-02-03T07:09:24;10.00;88.70
17992;DHT22;9121;50.926;5.340;2023-02-03T07:11:52;10.00;87.00
17992;DHT22;9121;50.926;5.340;2023-02-03T07:14:19;10.00;89.40
17992;DHT22;9121;50.926;5.340;2023-02-03T07:16:46;10.00;86.40
17992;DHT22;9121;50.926;5.340;2023-02-03T07:19:13;10.00;88.30
17992;DHT22;9121;50.926;5.340;2023-02-03T07:21:40;10.00;86.50
17992;DHT22;9121;50.926;5.340;2023-02-03T07:24:07;10.00;87.80
17992;DHT22;9121;50.926;5.340;2023-02-03T07:26:34;10.00;86.80
17992;DHT22;9121;50.926;5.340;2023-02-03T07:29:02;10.00;86.30
17992;DHT22;9121;50.926;5.340;2023-02-03T07:31:30;10.00;86.70
17992;DHT22;9121;50.926;5.340;2023-02-03T07:33:57;10.00;89.30
17992;DHT22;9121;50.926;5.340;2023-02-03T07:36:25;10.00;90.20
17992;DHT22;9121;50.926;5.340;2023-02-03T07:38:53;9.90;89.90
17992;DHT22;9121;50.926;5.340;2023-02-03T07:41:20;9.90;91.50
17992;DHT22;9121;50.926;5.340;2023-02-03T07:43:47;10.00;91.90
17992;DHT22;9121;50.926;5.340;2023-02-03T07:46:16;10.00;91.00
17992;DHT22;9121;50.926;5.340;2023-02-03T07:48:43;10.00;90.00
17992;DHT22;9121;50.926;5.340;2023-02-03T07:51:10;10.10;90.00
17992;DHT22;9121;50.926;5.340;2023-02-03T07:53:37;10.00;89.40
17992;DHT22;9121;50.926;5.340;2023-02-03T07:56:04;10.00;90.30
17992;DHT22;9121;50.926;5.340;2023-02-03T07:58:32;10.10;89.50
17992;DHT22;9121;50.926;5.340;2023-02-03T08:00:59;10.10;88.70
17992;DHT22;9121;50.926;5.340;2023-02-03T08:03:27;10.00;89.30
17992;DHT22;9121;50.926;5.340;2023-02-03T08:05:54;10.00;90.10
17992;DHT22;9121;50.926;5.340;2023-02-03T08:08:21;10.00;90.70
17992;DHT22;9121;50.926;5.340;2023-02-03T08:10:48;10.00;90.30
17992;DHT22;9121;50.926;5.340;2023-02-03T08:13:15;10.00;91.30
17992;DHT22;9121;50.926;5.340;2023-02-03T08:15:42;10.00;90.60
17992;DHT22;9121;50.926;5.340;2023-02-03T08:18:09;10.10;90.40
17992;DHT22;9121;50.926;5.340;2023-02-03T08:20:38;10.10;90.10
17992;DHT22;9121;50.926;5.340;2023-02-03T08:23:05;10.10;89.70
17992;DHT22;9121;50.926;5.340;2023-02-03T08:25:32;10.20;88.80
17992;DHT22;9121;50.926;5.340;2023-02-03T08:28:00;10.10;88.90
17992;DHT22;9121;50.926;5.340;2023-02-03T08:30:27;10.20;89.20
17992;DHT22;9121;50.926;5.340;2023-02-03T08:32:54;10.10;90.30
17992;DHT22;9121;50.926;5.340;2023-02-03T08:35:21;10.20;88.50
17992;DHT22;9121;50.926;5.340;2023-02-03T08:37:49;10.20;89.10
17992;DHT22;9121;50.926;5.340;2023-02-03T08:40:17;10.20;88.70
17992;DHT22;9121;50.926;5.340;2023-02-03T08:42:44;10.20;88.80
17992;DHT22;9121;50.926;5.340;2023-02-03T08:45:11;10.20;88.80
17992;DHT22;9121;50.926;5.340;2023-02-03T08:47:38;10.20;88.80
17992;DHT22;9121;50.926;5.340;2023-02-03T08:50:06;10.30;88.90
17992;DHT22;9121;50.926;5.340;2023-02-03T08:52:33;10.30;87.70
17992;DHT22;9121;50.926;5.340;2023-02-03T08:55:02;10.30;87.50
17992;DHT22;9121;50.926;5.340;2023-02-03T08:57:32;10.30;85.90
17992;DHT22;9121;50.926;5.340;2023-02-03T08:59:59;10.30;87.50
17992;DHT22;9121;50.926;5.340;2023-02-03T09:02:26;10.30;87.60
17992;DHT22;9121;50.926;5.340;2023-02-03T09:04:53;10.30;87.10
17992;DHT22;9121;50.926;5.340;2023-02-03T09:07:20;10.30;87.50
17992;DHT22;9121;50.926;5.340;2023-02-03T09:09:47;10.30;88.50
17992;DHT22;9121;50.926;5.340;2023-02-03T09:12:16;10.30;87.90
17992;DHT22;9121;50.926;5.340;2023-02-03T09:14:43;10.30;88.50
17992;DHT22;9121;50.926;5.340;2023-02-03T09:17:10;10.30;88.80
17992;DHT22;9121;50.926;5.340;2023-02-03T09:19:37;10.40;87.70
17992;DHT22;9121;50.926;5.340;2023-02-03T09:22:04;10.40;87.00
17992;DHT22;9121;50.926;5.340;2023-02-03T09:24:31;10.40;87.20
17992;DHT22;9121;50.926;5.340;2023-02-03T09:26:58;10.40;86.30
17992;DHT22;9121;50.926;5.340;2023-02-03T09:29:27;10.40;88.10
17992;DHT22;9121;50.926;5.340;2023-02-03T09:31:54;10.50;91.70
17992;DHT22;9121;50.926;5.340;2023-02-03T09:34:21;10.40;91.90
17992;DHT22;9121;50.926;5.340;2023-02-03T09:36:48;10.50;93.50
17992;DHT22;9121;50.926;5.340;2023-02-03T09:39:16;10.50;92.70
17992;DHT22;9121;50.926;5.340;2023-02-03T09:44:56;10.40;94.40
17992;DHT22;9121;50.926;5.340;2023-02-03T09:47:27;10.40;96.50
17992;DHT22;9121;50.926;5.340;2023-02-03T09:49:57;10.30;96.80
17992;DHT22;9121;50.926;5.340;2023-02-03T09:52:28;10.30;97.80
17992;DHT22;9121;50.926;5.340;2023-02-03T09:55:00;10.30;99.50
17992;DHT22;9121;50.926;5.340;2023-02-03T09:57:30;10.30;99.30
17992;DHT22;9121;50.926;5.340;2023-02-03T10:00:05;10.30;99.20
17992;DHT22;9121;50.926;5.340;2023-02-03T10:02:49;10.40;99.10
17992;DHT22;9121;50.926;5.340;2023-02-03T10:05:28;10.50;99.10
17992;DHT22;9121;50.926;5.340;2023-02-03T10:08:03;10.50;98.10
17992;DHT22;9121;50.926;5.340;2023-02-03T10:10:38;10.40;98.60
17992;DHT22;9121;50.926;5.340;2023-02-03T10:13:13;10.40;99.30
17992;DHT22;9121;50.926;5.340;2023-02-03T10:16:03;10.30;99.90
17992;DHT22;9121;50.926;5.340;2023-02-03T10:18:36;10.40;99.90
17992;DHT22;9121;50.926;5.340;2023-02-03T10:21:12;10.30;99.90
17992;DHT22;9121;50.926;5.340;2023-02-03T10:23:43;10.40;99.90
17992;DHT22;9121;50.926;5.340;2023-02-03T10:26:15;10.40;99.90
17992;DHT22;9121;50.926;5.340;2023-02-03T10:28:49;10.40;98.70
17992;DHT22;9121;50.926;5.340;2023-02-03T10:31:20;10.40;99.90
17992;DHT22;9121;50.926;5.340;2023-02-03T10:33:52;10.40;99.90
17992;DHT22;9121;50.926;5.340;2023-02-03T10:36:22;10.40;98.70
17992;DHT22;9121;50.926;5.340;2023-02-03T10:38:55;10.50;98.30
17992;DHT22;9121;50.926;5.340;2023-02-03T10:41:25;10.50;97.50
17992;DHT22;9121;50.926;5.340;2023-02-03T10:43:53;10.60;96.10
17992;DHT22;9121;50.926;5.340;2023-02-03T10:46:28;10.60;94.70
17992;DHT22;9121;50.926;5.340;2023-02-03T10:48:55;10.70;95.00
17992;DHT22;9121;50.926;5.340;2023-02-03T10:51:24;10.70;93.20
17992;DHT22;9121;50.926;5.340;2023-02-03T10:53:51;10.70;93.80
17992;DHT22;9121;50.926;5.340;2023-02-03T10:56:21;10.60;94.80
17992;DHT22;9121;50.926;5.340;2023-02-03T10:58:53;10.60;96.80
17992;DHT22;9121;50.926;5.340;2023-02-03T11:01:24;10.60;98.30
17992;DHT22;9121;50.926;5.340;2023-02-03T11:03:57;10.60;99.20
17992;DHT22;9121;50.926;5.340;2023-02-03T11:06:25;10.60;99.90
17992;DHT22;9121;50.926;5.340;2023-02-03T11:08:53;10.60;99.90
17992;DHT22;9121;50.926;5.340;2023-02-03T11:11:22;10.60;99.90
17992;DHT22;9121;50.926;5.340;2023-02-03T11:16:36;10.60;99.90
17992;DHT22;9121;50.926;5.340;2023-02-03T11:19:04;10.70;99.90
17992;DHT22;9121;50.926;5.340;2023-02-03T11:21:41;10.70;99.90
17992;DHT22;9121;50.926;5.340;2023-02-03T11:24:14;10.70;99.90
17992;DHT22;9121;50.926;5.340;2023-02-03T11:26:45;10.80;99.50
17992;DHT22;9121;50.926;5.340;2023-02-03T11:29:16;10.80;99.50
17992;DHT22;9121;50.926;5.340;2023-02-03T11:31:48;10.80;98.60
17992;DHT22;9121;50.926;5.340;2023-02-03T11:34:18;10.90;98.50
17992;DHT22;9121;50.926;5.340;2023-02-03T11:36:49;10.90;97.30
17992;DHT22;9121;50.926;5.340;2023-02-03T11:39:19;10.90;96.50
17992;DHT22;9121;50.926;5.340;2023-02-03T11:41:47;11.00;96.20
17992;DHT22;9121;50.926;5.340;2023-02-03T11:44:20;10.90;95.00
17992;DHT22;9121;50.926;5.340;2023-02-03T11:46:51;10.90;97.00
17992;DHT22;9121;50.926;5.340;2023-02-03T11:55:26;10.80;98.90
17992;DHT22;9121;50.926;5.340;2023-02-03T11:58:06;10.70;99.90
17992;DHT22;9121;50.926;5.340;2023-02-03T12:00:43;10.70;99.90
17992;DHT22;9121;50.926;5.340;2023-02-03T12:03:29;10.80;99.90
17992;DHT22;9121;50.926;5.340;2023-02-03T12:06:27;10.80;99.90
17992;DHT22;9121;50.926;5.340;2023-02-03T12:09:16;10.80;99.90
17992;DHT22;9121;50.926;5.340;2023-02-03T12:12:13;10.80;99.90
17992;DHT22;9121;50.926;5.340;2023-02-03T12:14:51;10.90;99.90
17992;DHT22;9121;50.926;5.340;2023-02-03T12:17:35;10.90;99.90
17992;DHT22;9121;50.926;5.340;2023-02-03T12:20:22;10.80;99.90
17992;DHT22;9121;50.926;5.340;2023-02-03T12:23:01;10.80;99.90
17992;DHT22;9121;50.926;5.340;2023-02-03T12:25:36;10.80;99.90
17992;DHT22;9121;50.926;5.340;2023-02-03T12:28:14;10.80;99.90
17992;DHT22;9121;50.926;5.340;2023-02-03T12:30:46;10.80;99.90
17992;DHT22;9121;50.926;5.340;2023-02-03T12:33:19;10.90;99.90
17992;DHT22;9121;50.926;5.340;2023-02-03T12:35:52;10.80;99.20
17992;DHT22;9121;50.926;5.340;2023-02-03T12:38:28;10.90;99.40
17992;DHT22;9121;50.926;5.340;2023-02-03T12:40:58;10.90;98.70
17992;DHT22;9121;50.926;5.340;2023-02-03T12:43:32;10.80;98.90
17992;DHT22;9121;50.926;5.340;2023-02-03T12:46:06;10.80;99.90
17992;DHT22;9121;50.926;5.340;2023-02-03T12:48:46;10.90;99.70
17992;DHT22;9121;50.926;5.340;2023-02-03T12:51:23;11.00;99.80
17992;DHT22;9121;50.926;5.340;2023-02-03T12:53:57;10.90;99.30
17992;DHT22;9121;50.926;5.340;2023-02-03T12:56:30;10.90;99.90
17992;DHT22;9121;50.926;5.340;2023-02-03T12:59:02;10.90;99.90
17992;DHT22;9121;50.926;5.340;2023-02-03T13:01:34;10.90;99.90
17992;DHT22;9121;50.926;5.340;2023-02-03T13:04:07;10.90;99.90
17992;DHT22;9121;50.926;5.340;2023-02-03T13:06:43;10.90;99.90
17992;DHT22;9121;50.926;5.340;2023-02-03T13:09:24;10.90;99.90
17992;DHT22;9121;50.926;5.340;2023-02-03T13:11:57;10.90;99.90
17992;DHT22;9121;50.926;5.340;2023-02-03T13:14:30;10.90;99.90
17992;DHT22;9121;50.926;5.340;2023-02-03T13:17:02;10.90;99.90
17992;DHT22;9121;50.926;5.340;2023-02-03T13:19:39;10.90;99.90
17992;DHT22;9121;50.926;5.340;2023-02-03T13:22:13;10.90;99.90
17992;DHT22;9121;50.926;5.340;2023-02-03T13:24:45;10.80;99.90
17992;DHT22;9121;50.926;5.340;2023-02-03T13:27:22;10.80;99.90
17992;DHT22;9121;50.926;5.340;2023-02-03T13:33:06;10.80;99.90
17992;DHT22;9121;50.926;5.340;2023-02-03T13:35:45;10.80;99.90
17992;DHT22;9121;50.926;5.340;2023-02-03T13:41:18;10.80;99.90
17992;DHT22;9121;50.926;5.340;2023-02-03T13:43:49;10.90;99.90
17992;DHT22;9121;50.926;5.340;2023-02-03T13:46:21;10.80;99.90
17992;DHT22;9121;50.926;5.340;2023-02-03T13:48:49;10.80;99.90
17992;DHT22;9121;50.926;5.340;2023-02-03T13:51:19;10.90;99.90
17992;DHT22;9121;50.926;5.340;2023-02-03T13:53:50;10.90;99.90
17992;DHT22;9121;50.926;5.340;2023-02-03T13:56:19;10.90;99.90
17992;DHT22;9121;50.926;5.340;2023-02-03T13:58:59;11.00;99.90
17992;DHT22;9121;50.926;5.340;2023-02-03T14:01:30;11.00;99.90
17992;DHT22;9121;50.926;5.340;2023-02-03T14:03:59;11.00;99.90
17992;DHT22;9121;50.926;5.340;2023-02-03T14:06:59;10.90;99.90
17992;DHT22;9121;50.926;5.340;2023-02-03T14:09:44;11.00;99.90
17992;DHT22;9121;50.926;5.340;2023-02-03T14:12:31;11.00;99.90
17992;DHT22;9121;50.926;5.340;2023-02-03T14:15:16;11.00;99.90
17992;DHT22;9121;50.926;5.340;2023-02-03T14:18:03;11.00;99.90
17992;DHT22;9121;50.926;5.340;2023-02-03T14:20:52;11.00;99.90
17992;DHT22;9121;50.926;5.340;2023-02-03T14:23:24;11.10;99.90
17992;DHT22;9121;50.926;5.340;2023-02-03T14:25:54;11.10;99.80
17992;DHT22;9121;50.926;5.340;2023-02-03T14:28:24;11.10;99.00
17992;DHT22;9121;50.926;5.340;2023-02-03T14:31:15;11.10;98.60
17992;DHT22;9121;50.926;5.340;2023-02-03T14:34:05;11.10;98.80
17992;DHT22;9121;50.926;5.340;2023-02-03T14:36:43;11.10;99.70
17992;DHT22;9121;50.926;5.340;2023-02-03T14:39:39;11.10;99.60
17992;DHT22;9121;50.926;5.340;2023-02-03T14:42:15;11.00;99.90
17992;DHT22;9121;50.926;5.340;2023-02-03T14:44:53;11.00;99.90
17992;DHT22;9121;50.926;5.340;2023-02-03T14:47:39;11.00;99.90
17992;DHT22;9121;50.926;5.340;2023-02-03T14:50:23;11.00;99.90
17992;DHT22;9121;50.926;5.340;2023-02-03T14:53:06;11.10;99.90
17992;DHT22;9121;50.926;5.340;2023-02-03T14:55:47;11.10;99.00
17992;DHT22;9121;50.926;5.340;2023-02-03T14:58:23;11.10;98.60
17992;DHT22;9121;50.926;5.340;2023-02-03T15:00:52;11.20;97.70
17992;DHT22;9121;50.926;5.340;2023-02-03T15:03:24;11.20;97.30
17992;DHT22;9121;50.926;5.340;2023-02-03T15:05:54;11.20;95.80
17992;DHT22;9121;50.926;5.340;2023-02-03T15:08:39;11.20;95.80
17992;DHT22;9121;50.926;5.340;2023-02-03T15:11:25;11.30;95.00
17992;DHT22;9121;50.926;5.340;2023-02-03T15:13:55;11.30;93.90
17992;DHT22;9121;50.926;5.340;2023-02-03T15:16:24;11.30;94.10
17992;DHT22;9121;50.926;5.340;2023-02-03T15:18:56;11.30;93.50
17992;DHT22;9121;50.926;5.340;2023-02-03T15:21:24;11.30;93.10
17992;DHT22;9121;50.926;5.340;2023-02-03T15:23:51;11.30;93.30
17992;DHT22;9121;50.926;5.340;2023-02-03T15:26:20;11.30;93.50
17992;DHT22;9121;50.926;5.340;2023-02-03T15:28:57;11.30;93.30
17992;DHT22;9121;50.926;5.340;2023-02-03T15:31:28;11.30;92.40
17992;DHT22;9121;50.926;5.340;2023-02-03T15:34:02;11.40;91.90
17992;DHT22;9121;50.926;5.340;2023-02-03T15:36:35;11.30;93.00
17992;DHT22;9121;50.926;5.340;2023-02-03T15:39:14;11.30;92.30
17992;DHT22;9121;50.926;5.340;2023-02-03T15:41:44;11.30;92.90
17992;DHT22;9121;50.926;5.340;2023-02-03T15:44:22;11.30;92.80
17992;DHT22;9121;50.926;5.340;2023-02-03T15:46:52;11.30;92.60
17992;DHT22;9121;50.926;5.340;2023-02-03T15:49:24;11.30;92.80
17992;DHT22;9121;50.926;5.340;2023-02-03T15:51:54;11.30;93.20
17992;DHT22;9121;50.926;5.340;2023-02-03T15:54:25;11.30;93.50
17992;DHT22;9121;50.926;5.340;2023-02-03T15:56:57;11.40;92.90
17992;DHT22;9121;50.926;5.340;2023-02-03T15:59:34;11.40;93.20
17992;DHT22;9121;50.926;5.340;2023-02-03T16:02:06;11.40;92.90
17992;DHT22;9121;50.926;5.340;2023-02-03T16:04:38;11.40;93.40
17992;DHT22;9121;50.926;5.340;2023-02-03T16:07:05;11.30;93.40
17992;DHT22;9121;50.926;5.340;2023-02-03T16:09:33;11.40;93.00
17992;DHT22;9121;50.926;5.340;2023-02-03T16:12:13;11.30;93.10
17992;DHT22;9121;50.926;5.340;2023-02-03T16:14:43;11.30;95.10
17992;DHT22;9121;50.926;5.340;2023-02-03T16:17:29;11.30;95.40
17992;DHT22;9121;50.926;5.340;2023-02-03T16:20:23;11.30;95.00
17992;DHT22;9121;50.926;5.340;2023-02-03T16:23:03;11.30;94.70
17992;DHT22;9121;50.926;5.340;2023-02-03T16:25:31;11.30;94.80
17992;DHT22;9121;50.926;5.340;2023-02-03T16:28:00;11.30;94.80
17992;DHT22;9121;50.926;5.340;2023-02-03T16:30:55;11.20;95.70
17992;DHT22;9121;50.926;5.340;2023-02-03T16:33:44;11.20;97.10